Time;durP1;ratioP1;P1;durP2;ratioP2;P2;SDS_P1;SDS_P2;PMS_P1;PMS_P2;Temp;Humidity;BMP_temperature;BMP_pressure;BME280_temperature;BME280_humidity;BME280_pressure;Samples;Min_cycle;Max_cycle;Signal;HPM_P1;HPM_P2
2023/02/27 00:00:13;;;;;;;3.55;2.20;;;;;;;-0.38;78.11;98483.69;4184942;28;20209;-81
2023/02/27 00:02:17;;;;;;;2.30;1.80;;;;;;;-0.39;77.77;98488.88;4184853;28;20915;-81
2023/02/27 00:04:20;;;;;;;3.20;2.00;;;;;;;-0.41;78.02;98493.16;4203530;28;20204;-82
2023/02/27 00:06:24;;;;;;;3.25;2.10;;;;;;;-0.44;78.33;98491.53;4199713;28;20223;-81
2023/02/27 00:08:27;;;;;;;4.90;2.50;;;;;;;-0.46;78.45;98488.13;4198479;28;20246;-81
2023/02/27 00:10:30;;;;;;;3.83;2.20;;;;;;;-0.46;78.48;98485.56;4201143;28;20206;-82
2023/02/27 00:12:36;;;;;;;3.65;2.53;;;;;;;-0.43;78.30;98487.25;4184063;28;20226;-82
2023/02/27 00:14:40;;;;;;;5.07;2.42;;;;;;;-0.48;78.41;98483.94;4187189;28;20206;-82
2023/02/27 00:16:43;;;;;;;3.15;1.80;;;;;;;-0.48;79.10;98473.69;4200048;28;20236;-81
2023/02/27 00:18:48;;;;;;;3.25;2.05;;;;;;;-0.50;78.90;98475.41;4206460;28;20594;-81
2023/02/27 00:20:51;;;;;;;3.20;2.17;;;;;;;-0.46;78.80;98483.03;4203874;28;20635;-81
2023/02/27 00:22:54;;;;;;;2.35;1.80;;;;;;;-0.45;78.40;98477.03;4188182;28;20201;-81
2023/02/27 00:25:00;;;;;;;2.10;1.75;;;;;;;-0.44;78.46;98475.31;4192690;28;20350;-81
2023/02/27 00:27:03;;;;;;;3.83;2.20;;;;;;;-0.42;78.44;98471.84;4200750;28;20211;-81
2023/02/27 00:29:07;;;;;;;3.05;2.15;;;;;;;-0.36;78.91;98479.41;4183726;28;20271;-82
2023/02/27 00:31:10;;;;;;;3.50;1.85;;;;;;;-0.29;78.07;98480.97;4184944;28;20448;-81
2023/02/27 00:33:20;;;;;;;2.30;1.80;;;;;;;-0.32;78.45;98487.88;4200347;28;20221;-81
2023/02/27 00:35:27;;;;;;;3.47;1.85;;;;;;;-0.34;78.54;98484.50;4188219;28;20205;-82
2023/02/27 00:37:30;;;;;;;2.55;1.88;;;;;;;-0.38;78.31;98483.69;4196359;28;20239;-81
2023/02/27 00:39:34;;;;;;;2.78;2.17;;;;;;;-0.39;78.48;98484.59;4182917;28;20213;-82
2023/02/27 00:41:37;;;;;;;3.63;2.30;;;;;;;-0.34;78.43;98481.94;4195002;28;20197;-82
2023/02/27 00:43:40;;;;;;;3.08;1.73;;;;;;;-0.38;78.61;98481.16;4193360;28;20220;-81
2023/02/27 00:45:43;;;;;;;2.97;2.30;;;;;;;-0.37;78.78;98489.69;4188162;28;20645;-81
2023/02/27 00:47:48;;;;;;;2.50;2.08;;;;;;;-0.36;78.91;98489.66;4194508;28;20688;-81
2023/02/27 00:49:51;;;;;;;2.85;2.10;;;;;;;-0.36;78.88;98487.09;4202877;28;20232;-81
2023/02/27 00:51:56;;;;;;;3.15;1.75;;;;;;;-0.40;78.79;98485.47;4202146;28;20203;-82
2023/02/27 00:53:59;;;;;;;2.95;2.30;;;;;;;-0.39;79.14;98488.88;4198110;28;20200;-82
2023/02/27 00:56:06;;;;;;;3.20;1.70;;;;;;;-0.38;79.28;98490.56;4185090;28;20669;-81
2023/02/27 00:58:09;;;;;;;2.15;1.77;;;;;;;-0.41;79.02;98482.94;4190836;28;20627;-81
2023/02/27 01:00:14;;;;;;;4.28;2.13;;;;;;;-0.41;78.97;98494.03;4198057;28;20209;-81
2023/02/27 01:02:20;;;;;;;12.52;4.40;;;;;;;-0.39;79.13;98489.72;4190138;28;20198;-81
2023/02/27 01:04:23;;;;;;;3.10;2.00;;;;;;;-0.41;79.30;98486.34;4201838;28;20641;-82
2023/02/27 01:06:28;;;;;;;3.30;2.10;;;;;;;-0.38;79.12;98482.88;4198816;28;20772;-82
2023/02/27 01:08:33;;;;;;;4.07;2.10;;;;;;;-0.37;79.02;98487.97;4198096;28;20228;-81
2023/02/27 01:10:40;;;;;;;2.65;2.00;;;;;;;-0.41;79.00;98499.16;4194975;28;20198;-81
2023/02/27 01:12:43;;;;;;;5.07;2.50;;;;;;;-0.39;78.93;98478.66;4187494;28;20221;-81
2023/02/27 01:14:46;;;;;;;2.50;2.28;;;;;;;-0.40;79.09;98482.91;4190754;28;20205;-81
2023/02/27 01:16:52;;;;;;;3.10;2.13;;;;;;;-0.47;79.53;98491.59;4182993;28;20220;-81
2023/02/27 01:18:55;;;;;;;4.10;2.78;;;;;;;-0.49;79.64;98484.81;4190182;28;20205;-81
2023/02/27 01:21:03;;;;;;;3.22;2.00;;;;;;;-0.56;79.63;98482.38;4198610;28;20211;-82
2023/02/27 01:23:07;;;;;;;3.22;2.10;;;;;;;-0.49;79.92;98489.09;4191964;28;20205;-82
2023/02/27 01:25:11;;;;;;;3.75;2.30;;;;;;;-0.47;79.53;98483.03;4207488;28;20223;-81
2023/02/27 01:27:14;;;;;;;4.40;2.40;;;;;;;-0.50;79.97;98497.63;4190475;28;20210;-81
2023/02/27 01:29:17;;;;;;;2.78;2.40;;;;;;;-0.53;80.05;98485.72;4207422;28;20816;-81
2023/02/27 01:31:21;;;;;;;2.55;2.25;;;;;;;-0.50;79.86;98487.38;4195210;28;20263;-81
2023/02/27 01:33:24;;;;;;;5.20;2.50;;;;;;;-0.52;79.70;98489.16;4190139;28;20264;-82
2023/02/27 01:35:30;;;;;;;3.13;2.53;;;;;;;-0.63;80.00;98485.91;4197532;28;20225;-83
2023/02/27 01:37:33;;;;;;;2.75;1.92;;;;;;;-0.63;80.08;98476.53;4187319;28;20329;-83
2023/02/27 01:39:36;;;;;;;3.03;2.17;;;;;;;-0.60;80.07;98483.31;4188310;28;20197;-82
2023/02/27 01:41:43;;;;;;;2.65;2.00;;;;;;;-0.56;80.09;98478.09;4182825;28;20244;-81
2023/02/27 01:43:55;;;;;;;3.28;2.20;;;;;;;-0.55;79.78;98479.78;4195965;28;20208;-81
2023/02/27 01:45:59;;;;;;;3.00;2.03;;;;;;;-0.57;80.21;98475.56;4196357;28;20547;-81
2023/02/27 01:48:11;;;;;;;5.20;2.20;;;;;;;-0.57;80.07;98478.13;4198474;28;20233;-80
2023/02/27 01:50:16;;;;;;;4.07;2.60;;;;;;;-0.61;80.15;98476.53;4181445;28;20267;-81
2023/02/27 01:52:19;;;;;;;5.55;2.35;;;;;;;-0.57;80.18;98478.13;4201997;28;20202;-81
2023/02/27 01:54:27;;;;;;;2.75;2.33;;;;;;;-0.58;80.32;98476.47;4204132;28;20602;-80
2023/02/27 01:56:32;;;;;;;3.10;2.30;;;;;;;-0.60;80.39;98471.38;4196876;28;20233;-81
2023/02/27 01:58:37;;;;;;;3.45;2.50;;;;;;;-0.52;80.04;98476.34;4185649;28;20620;-80
2023/02/27 02:00:41;;;;;;;3.80;2.25;;;;;;;-0.50;80.16;98469.47;4186102;28;20206;-80
2023/02/27 02:02:55;;;;;;;3.67;2.10;;;;;;;-0.50;80.11;98464.34;4197711;28;20749;-80
2023/02/27 02:04:58;;;;;;;3.35;2.55;;;;;;;-0.54;79.83;98467.81;4194991;28;20588;-80
2023/02/27 02:07:04;;;;;;;3.40;2.33;;;;;;;-0.47;79.91;98479.66;4198821;28;20221;-80
2023/02/27 02:09:09;;;;;;;5.38;2.28;;;;;;;-0.50;79.75;98479.72;4185265;28;20194;-81
2023/02/27 02:11:14;;;;;;;2.50;2.03;;;;;;;-0.55;79.92;98472.13;4188501;28;20213;-81
2023/02/27 02:13:17;;;;;;;2.50;1.88;;;;;;;-0.48;80.03;98475.41;4182942;28;20219;-81
2023/02/27 02:15:27;;;;;;;2.22;2.03;;;;;;;-0.53;79.97;98472.09;4202200;28;20658;-81
2023/02/27 02:17:39;;;;;;;3.75;2.33;;;;;;;-0.56;79.95;98464.47;4185674;28;20294;-80
2023/02/27 02:20:09;;;;;;;3.28;2.95;;;;;;;-0.57;79.99;98468.75;4186642;28;20701;-80
2023/02/27 02:22:53;;;;;;;3.42;2.25;;;;;;;-0.57;80.10;98462.75;4160240;28;20201;-81
2023/02/27 02:25:37;;;;;;;3.85;2.80;;;;;;;-0.53;80.30;98470.34;4190215;28;20653;-81
2023/02/27 02:27:48;;;;;;;4.43;2.33;;;;;;;-0.52;79.83;98471.22;4183107;28;20217;-80
2023/02/27 02:30:21;;;;;;;3.03;2.30;;;;;;;-0.60;79.93;98462.81;4184174;28;20205;-81
2023/02/27 02:32:43;;;;;;;3.70;2.60;;;;;;;-0.56;80.21;98470.41;4155742;28;20213;-80
2023/02/27 02:35:17;;;;;;;2.60;2.20;;;;;;;-0.54;79.96;98475.50;4186694;28;20597;-80
2023/02/27 02:37:53;;;;;;;3.30;2.50;;;;;;;-0.67;80.34;98472.34;4188812;28;20685;-80
2023/02/27 02:40:20;;;;;;;2.88;2.30;;;;;;;-0.65;80.55;98457.78;4183470;28;20205;-81
2023/02/27 02:42:26;;;;;;;2.40;2.10;;;;;;;-0.57;80.28;98470.44;4182263;28;20201;-82
2023/02/27 02:44:36;;;;;;;2.97;2.58;;;;;;;-0.56;80.24;98470.41;4193532;28;20205;-82
2023/02/27 02:46:45;;;;;;;3.95;2.55;;;;;;;-0.58;80.38;98479.03;4199856;28;20250;-82
2023/02/27 02:48:54;;;;;;;2.60;2.20;;;;;;;-0.57;80.40;98483.25;4177580;28;20220;-82
2023/02/27 02:51:04;;;;;;;3.80;2.40;;;;;;;-0.57;80.23;98475.56;4207400;28;20749;-82
2023/02/27 02:53:11;;;;;;;6.35;2.95;;;;;;;-0.65;80.26;98480.00;4182473;28;20622;-82
2023/02/27 02:55:22;;;;;;;4.68;3.35;;;;;;;-0.69;80.25;98479.22;4205817;28;20207;-82
2023/02/27 02:57:31;;;;;;;6.68;2.72;;;;;;;-0.59;80.45;98485.00;4213170;28;20227;-82
2023/02/27 02:59:39;;;;;;;3.13;2.17;;;;;;;-0.59;80.36;98488.41;4177506;28;20294;-83
2023/02/27 03:01:44;;;;;;;4.75;2.80;;;;;;;-0.55;80.24;98486.66;4190292;28;20204;-82
2023/02/27 03:03:52;;;;;;;2.40;2.20;;;;;;;-0.55;80.05;98487.47;4182126;28;20233;-82
2023/02/27 03:06:02;;;;;;;4.47;2.40;;;;;;;-0.51;80.16;98495.94;4176294;28;20252;-80
2023/02/27 03:08:09;;;;;;;3.78;2.35;;;;;;;-0.48;79.91;98488.19;4187351;28;20633;-80
2023/02/27 03:10:15;;;;;;;2.47;2.20;;;;;;;-0.45;79.93;98484.72;4192071;28;20193;-80
2023/02/27 03:12:23;;;;;;;3.67;2.35;;;;;;;-0.47;79.91;98486.47;4200888;28;20276;-80
2023/02/27 03:14:30;;;;;;;3.95;2.70;;;;;;;-0.47;79.77;98495.00;4207727;28;20708;-80
2023/02/27 03:16:40;;;;;;;2.95;2.10;;;;;;;-0.51;79.84;98494.25;4195904;28;20760;-80
2023/02/27 03:18:47;;;;;;;3.45;2.55;;;;;;;-0.49;79.85;98494.22;4184847;28;20202;-80
2023/02/27 03:20:53;;;;;;;2.55;2.20;;;;;;;-0.49;79.91;98507.00;4183040;28;20367;-80
2023/02/27 03:23:01;;;;;;;3.78;2.55;;;;;;;-0.49;80.01;98505.28;4187079;28;20209;-80
2023/02/27 03:25:07;;;;;;;3.38;2.40;;;;;;;-0.46;79.93;98507.78;4185289;28;20202;-80
2023/02/27 03:27:13;;;;;;;6.32;2.88;;;;;;;-0.45;79.66;98502.63;4187438;28;20208;-80
2023/02/27 03:29:20;;;;;;;4.22;2.30;;;;;;;-0.44;79.42;98509.47;4198083;28;20204;-80
2023/02/27 03:31:31;;;;;;;3.72;2.65;;;;;;;-0.50;79.86;98505.31;4186444;28;20646;-80
2023/02/27 03:33:38;;;;;;;3.65;2.63;;;;;;;-0.47;79.89;98505.25;4194827;28;20206;-80
2023/02/27 03:35:47;;;;;;;4.97;2.45;;;;;;;-0.47;79.14;98501.84;4196425;28;20217;-80
2023/02/27 03:37:58;;;;;;;5.05;2.60;;;;;;;-0.47;79.80;98512.06;4197012;28;20277;-80
2023/02/27 03:40:08;;;;;;;6.10;3.58;;;;;;;-0.52;79.90;98499.38;4188841;28;20259;-80
2023/02/27 03:42:16;;;;;;;4.60;2.40;;;;;;;-0.50;80.03;98513.00;4184164;28;20202;-80
2023/02/27 03:44:54;;;;;;;4.47;2.33;;;;;;;-0.48;80.26;98516.38;4177002;28;20650;-80
2023/02/27 03:46:58;;;;;;;2.67;2.20;;;;;;;-0.57;79.82;98511.41;4183303;28;20204;-80
2023/02/27 03:49:01;;;;;;;6.82;2.85;;;;;;;-0.52;79.86;98512.19;4180155;28;20247;-80
2023/02/27 03:51:05;;;;;;;9.25;3.15;;;;;;;-0.57;79.92;98513.97;4189086;28;20205;-80
2023/02/27 03:53:13;;;;;;;3.92;2.60;;;;;;;-0.61;80.00;98520.03;4185934;28;20240;-80
2023/02/27 03:55:18;;;;;;;3.55;2.55;;;;;;;-0.56;80.51;98521.63;4190400;28;20267;-80
2023/02/27 03:57:22;;;;;;;6.05;2.85;;;;;;;-0.65;80.21;98524.34;4190381;28;20760;-80
2023/02/27 03:59:29;;;;;;;4.55;2.40;;;;;;;-0.66;80.15;98520.13;4194411;28;20196;-80
2023/02/27 04:01:34;;;;;;;3.22;2.90;;;;;;;-0.68;80.48;98521.84;4188737;28;20202;-80
2023/02/27 04:03:43;;;;;;;3.40;2.63;;;;;;;-0.70;80.55;98522.75;4206640;28;20617;-80
2023/02/27 04:05:50;;;;;;;3.67;2.72;;;;;;;-0.74;80.77;98519.38;4185960;28;20305;-80
2023/02/27 04:08:07;;;;;;;4.70;3.08;;;;;;;-0.78;80.94;98520.34;4198335;28;20304;-80
2023/02/27 04:10:39;;;;;;;4.35;2.50;;;;;;;-0.79;80.67;98530.59;4185612;28;20206;-80
2023/02/27 04:13:03;;;;;;;5.00;3.03;;;;;;;-0.78;80.98;98525.44;4191095;28;20288;-80
2023/02/27 04:15:14;;;;;;;3.92;2.40;;;;;;;-0.83;81.03;98521.28;4194954;28;20227;-80
2023/02/27 04:17:22;;;;;;;4.50;2.70;;;;;;;-0.75;81.23;98532.22;4198694;28;20262;-80
2023/02/27 04:19:36;;;;;;;4.78;3.03;;;;;;;-0.74;80.83;98526.22;4189055;28;20209;-80
2023/02/27 04:21:44;;;;;;;5.13;2.80;;;;;;;-0.64;80.56;98531.16;4201923;28;20204;-80
2023/02/27 04:23:55;;;;;;;3.30;2.58;;;;;;;-0.70;80.46;98525.31;4177266;28;20232;-80
2023/02/27 04:26:09;;;;;;;3.05;2.75;;;;;;;-0.72;80.55;98527.91;4196019;28;20197;-80
2023/02/27 04:28:17;;;;;;;4.93;2.63;;;;;;;-0.69;80.40;98524.44;4189297;28;20606;-80
2023/02/27 04:30:26;;;;;;;4.97;3.00;;;;;;;-0.67;80.28;98520.97;4189723;28;20576;-79
2023/02/27 04:32:35;;;;;;;5.22;2.90;;;;;;;-0.71;80.60;98514.22;4178375;28;20225;-80
2023/02/27 04:34:42;;;;;;;4.25;2.50;;;;;;;-0.66;80.34;98521.81;4186466;28;20213;-80
2023/02/27 04:36:48;;;;;;;4.38;3.00;;;;;;;-0.58;80.38;98522.53;4188177;28;20233;-80
2023/02/27 04:38:57;;;;;;;3.50;2.63;;;;;;;-0.59;80.25;98525.97;4200657;28;20197;-80
2023/02/27 04:41:05;;;;;;;4.38;2.50;;;;;;;-0.63;80.44;98525.19;4183901;28;20719;-80
2023/02/27 04:43:10;;;;;;;7.05;2.70;;;;;;;-0.66;80.25;98525.25;4189746;28;20201;-80
2023/02/27 04:45:19;;;;;;;3.78;2.63;;;;;;;-0.65;80.27;98523.50;4195468;28;20287;-80
2023/02/27 04:47:23;;;;;;;4.57;3.10;;;;;;;-0.68;80.41;98521.84;4194426;28;20316;-80
2023/02/27 04:49:33;;;;;;;4.22;2.50;;;;;;;-0.72;80.61;98517.66;4179103;28;20241;-80
2023/02/27 04:51:40;;;;;;;3.55;2.70;;;;;;;-0.75;80.60;98520.28;4189241;28;20217;-80
2023/02/27 04:53:47;;;;;;;3.05;2.40;;;;;;;-0.81;80.78;98517.00;4190791;28;20209;-80
2023/02/27 04:55:54;;;;;;;3.78;2.97;;;;;;;-0.93;81.09;98520.59;4187341;28;20266;-80
2023/02/27 04:58:00;;;;;;;5.00;2.83;;;;;;;-0.82;81.16;98521.25;4188308;28;20647;-80
2023/02/27 05:00:08;;;;;;;5.43;2.92;;;;;;;-0.76;80.63;98525.41;4196252;28;20212;-80
2023/02/27 05:02:13;;;;;;;4.10;2.85;;;;;;;-0.82;80.78;98525.53;4199606;28;20209;-80
2023/02/27 05:04:19;;;;;;;4.05;2.55;;;;;;;-0.83;81.17;98526.38;4191313;28;20212;-80
2023/02/27 05:06:27;;;;;;;3.55;2.55;;;;;;;-0.86;80.96;98527.31;4202939;28;20263;-80
2023/02/27 05:08:35;;;;;;;3.40;3.00;;;;;;;-0.90;81.55;98535.88;4184897;28;20201;-80
2023/02/27 05:10:43;;;;;;;3.55;2.55;;;;;;;-1.02;81.50;98529.28;4183172;28;20842;-80
2023/02/27 05:12:50;;;;;;;3.78;2.67;;;;;;;-0.97;81.96;98528.34;4199451;28;20192;-80
2023/02/27 05:14:56;;;;;;;3.15;2.40;;;;;;;-0.94;81.74;98528.28;4204859;28;20659;-80
2023/02/27 05:17:05;;;;;;;4.68;2.80;;;;;;;-0.98;81.56;98528.38;4200584;28;20205;-80
2023/02/27 05:19:08;;;;;;;4.93;2.88;;;;;;;-1.02;81.99;98534.38;4202099;28;20331;-80
2023/02/27 05:21:24;;;;;;;4.95;3.40;;;;;;;-1.06;82.27;98528.47;4198861;28;20288;-80
2023/02/27 05:23:35;;;;;;;4.30;2.95;;;;;;;-1.03;82.03;98533.56;4196207;28;20205;-80
2023/02/27 05:25:44;;;;;;;4.03;2.95;;;;;;;-0.92;81.92;98531.66;4188884;28;20364;-80
2023/02/27 05:27:53;;;;;;;5.30;2.95;;;;;;;-0.97;81.91;98538.56;4201088;28;20204;-80
2023/02/27 05:29:59;;;;;;;3.17;2.67;;;;;;;-0.94;81.79;98539.34;4184892;28;20224;-80
2023/02/27 05:32:06;;;;;;;4.18;2.60;;;;;;;-0.98;81.75;98547.09;4201003;28;20281;-80
2023/02/27 05:34:14;;;;;;;5.05;2.80;;;;;;;-1.02;81.89;98540.38;4194909;28;20299;-80
2023/02/27 05:36:20;;;;;;;4.75;2.55;;;;;;;-1.06;82.48;98543.00;4202676;28;20607;-80
2023/02/27 05:38:27;;;;;;;4.80;2.70;;;;;;;-1.03;82.08;98554.03;4182232;28;20205;-80
2023/02/27 05:40:33;;;;;;;4.40;2.75;;;;;;;-1.00;81.98;98550.59;4204134;28;20208;-80
2023/02/27 05:42:40;;;;;;;4.68;2.65;;;;;;;-0.97;82.17;98561.59;4198156;28;20237;-80
2023/02/27 05:44:47;;;;;;;8.35;2.85;;;;;;;-0.95;81.66;98557.28;4197515;28;20203;-80
2023/02/27 05:46:53;;;;;;;5.90;3.40;;;;;;;-1.00;82.11;98560.81;4199565;28;20205;-80
2023/02/27 05:48:58;;;;;;;4.78;3.13;;;;;;;-1.04;82.24;98542.09;4199785;28;20677;-80
2023/02/27 05:51:03;;;;;;;4.35;3.75;;;;;;;-1.05;81.98;98558.31;4197898;28;20197;-80
2023/02/27 05:53:09;;;;;;;6.78;3.60;;;;;;;-1.09;82.23;98564.34;4195183;28;20212;-80
2023/02/27 05:55:18;;;;;;;3.95;3.08;;;;;;;-1.08;82.51;98558.38;4197835;28;20229;-80
2023/02/27 05:57:24;;;;;;;5.85;3.58;;;;;;;-1.03;82.41;98559.13;4200455;28;20204;-80
2023/02/27 05:59:31;;;;;;;5.47;3.45;;;;;;;-1.14;82.28;98560.16;4195844;28;20213;-80
2023/02/27 06:01:35;;;;;;;5.78;3.72;;;;;;;-1.14;82.58;98555.91;4188564;28;20675;-80
2023/02/27 06:03:39;;;;;;;5.00;3.70;;;;;;;-1.10;83.05;98562.66;4178140;28;20199;-80
2023/02/27 06:05:43;;;;;;;4.50;2.90;;;;;;;-1.10;82.84;98570.31;4196756;28;20308;-80
2023/02/27 06:07:47;;;;;;;6.30;3.53;;;;;;;-1.15;82.74;98554.22;4196180;28;20288;-80
2023/02/27 06:09:51;;;;;;;6.93;3.30;;;;;;;-1.10;82.82;98562.66;4182149;28;20220;-80
2023/02/27 06:11:56;;;;;;;9.15;3.70;;;;;;;-1.06;82.80;98568.59;4192710;28;20201;-79
2023/02/27 06:13:59;;;;;;;8.18;5.25;;;;;;;-1.09;82.73;98561.78;4193552;28;20530;-80
2023/02/27 06:16:02;;;;;;;7.93;4.43;;;;;;;-1.07;82.85;98567.72;4198073;28;20732;-80
2023/02/27 06:18:06;;;;;;;5.65;3.85;;;;;;;-0.98;82.72;98582.09;4189627;28;20216;-80
2023/02/27 06:20:11;;;;;;;8.93;3.60;;;;;;;-0.96;82.30;98581.22;4202017;28;21606;-79
2023/02/27 06:22:14;;;;;;;5.28;3.13;;;;;;;-1.01;82.57;98577.03;4179004;28;20800;-80
2023/02/27 06:24:18;;;;;;;6.40;3.60;;;;;;;-1.07;82.62;98580.50;4184492;28;20213;-80
2023/02/27 06:26:24;;;;;;;6.95;3.58;;;;;;;-1.03;82.78;98579.59;4191562;28;20718;-82
2023/02/27 06:28:30;;;;;;;8.77;3.75;;;;;;;-0.98;82.62;98588.03;4183478;28;20213;-81
2023/02/27 06:30:36;;;;;;;5.25;3.97;;;;;;;-0.90;82.48;98581.94;4196902;28;20235;-81
2023/02/27 06:32:40;;;;;;;3.85;3.45;;;;;;;-0.79;82.03;98589.47;4200645;28;20250;-81
2023/02/27 06:34:49;;;;;;;5.30;3.20;;;;;;;-0.68;81.63;98592.69;4205914;28;20204;-81
2023/02/27 06:36:53;;;;;;;4.88;3.65;;;;;;;-0.49;81.33;98599.19;4182859;28;20225;-80
2023/02/27 06:38:57;;;;;;;4.32;3.00;;;;;;;-0.30;80.86;98599.69;4185493;28;20210;-80
2023/02/27 06:41:02;;;;;;;6.78;3.78;;;;;;;-0.25;80.00;98600.44;4191806;28;20205;-80
2023/02/27 06:43:06;;;;;;;6.15;4.40;;;;;;;-0.21;79.76;98601.22;4183493;28;20213;-79
2023/02/27 06:45:13;;;;;;;5.65;4.50;;;;;;;-0.16;79.70;98605.41;4190112;28;20198;-79
2023/02/27 06:47:19;;;;;;;5.38;4.65;;;;;;;0.00;79.38;98609.38;4201062;28;20739;-80
2023/02/27 06:49:23;;;;;;;8.90;5.65;;;;;;;0.30;78.79;98611.31;4206469;28;20208;-79
2023/02/27 06:51:29;;;;;;;6.28;4.50;;;;;;;0.51;77.76;98610.03;4182880;28;20202;-79
2023/02/27 06:53:35;;;;;;;4.25;3.33;;;;;;;0.69;76.85;98612.19;4201729;28;20208;-79
2023/02/27 06:55:40;;;;;;;5.57;4.28;;;;;;;0.81;76.50;98608.50;4199670;28;20209;-80
2023/02/27 06:57:45;;;;;;;7.72;5.28;;;;;;;0.99;76.32;98624.34;4184478;28;20205;-79
2023/02/27 06:59:48;;;;;;;6.05;4.65;;;;;;;1.18;75.67;98628.19;4184616;28;20580;-82
2023/02/27 07:01:54;;;;;;;3.78;3.22;;;;;;;1.22;74.80;98629.78;4202053;28;20197;-81
2023/02/27 07:03:59;;;;;;;6.22;3.55;;;;;;;1.26;74.31;98636.56;4181880;28;20206;-81
2023/02/27 07:06:06;;;;;;;5.32;3.28;;;;;;;1.28;73.79;98632.22;4194052;28;20303;-80
2023/02/27 07:08:11;;;;;;;5.40;3.95;;;;;;;1.42;74.29;98642.13;4197323;28;20205;-78
2023/02/27 07:10:14;;;;;;;3.50;2.97;;;;;;;1.54;72.96;98639.25;4166595;28;20923;-80
2023/02/27 07:12:18;;;;;;;4.45;3.30;;;;;;;1.61;72.23;98645.09;4181981;28;20228;-82
2023/02/27 07:14:21;;;;;;;7.85;4.10;;;;;;;1.64;72.26;98643.31;4181688;28;20212;-81
2023/02/27 07:16:24;;;;;;;7.65;4.20;;;;;;;1.64;72.12;98648.44;4171185;28;20697;-83
2023/02/27 07:18:30;;;;;;;4.22;3.30;;;;;;;1.66;72.41;98653.56;4190084;28;20356;-81
2023/02/27 07:20:33;;;;;;;6.20;4.20;;;;;;;1.70;72.10;98640.59;4194155;28;20209;-82
2023/02/27 07:22:36;;;;;;;5.35;4.00;;;;;;;1.86;72.00;98656.47;4183866;28;20285;-82
2023/02/27 07:24:40;;;;;;;6.13;4.03;;;;;;;2.05;71.27;98661.09;4205800;28;20197;-82
2023/02/27 07:26:44;;;;;;;3.65;3.33;;;;;;;2.04;70.76;98660.25;4185708;28;20808;-81
2023/02/27 07:28:47;;;;;;;3.85;3.05;;;;;;;2.08;70.67;98653.31;4181510;28;20198;-82
2023/02/27 07:30:54;;;;;;;4.65;3.17;;;;;;;2.20;69.89;98658.97;4200179;28;20753;-82
2023/02/27 07:32:57;;;;;;;5.72;3.65;;;;;;;2.07;70.18;98657.59;4200830;28;20217;-82
2023/02/27 07:35:03;;;;;;;5.03;3.08;;;;;;;1.99;70.18;98653.56;4186471;28;20708;-80
2023/02/27 07:37:06;;;;;;;4.13;3.05;;;;;;;2.31;70.88;98663.84;4198027;28;20939;-80
2023/02/27 07:39:12;;;;;;;4.75;3.28;;;;;;;2.44;69.59;98673.75;4200463;28;20201;-80
2023/02/27 07:41:15;;;;;;;3.78;3.33;;;;;;;2.59;69.76;98660.47;4196456;28;20221;-80
2023/02/27 07:43:34;;;;;;;3.28;2.80;;;;;;;2.73;69.16;98669.47;4204126;28;20204;-80
2023/02/27 07:45:38;;;;;;;4.43;3.83;;;;;;;2.83;69.05;98670.91;4197936;28;20207;-80
2023/02/27 07:47:41;;;;;;;5.00;3.72;;;;;;;3.00;68.48;98666.94;4205610;28;20200;-81
2023/02/27 07:49:44;;;;;;;5.35;3.25;;;;;;;2.98;67.66;98655.00;4191735;28;20292;-79
2023/02/27 07:51:48;;;;;;;6.50;4.43;;;;;;;2.98;68.27;98663.56;4199999;28;20581;-80
2023/02/27 07:53:52;;;;;;;3.80;3.38;;;;;;;3.27;68.48;98665.28;4176800;28;20658;-80
2023/02/27 07:55:55;;;;;;;4.60;3.60;;;;;;;3.32;66.56;98670.25;4198827;28;20267;-79
2023/02/27 07:57:58;;;;;;;4.35;3.25;;;;;;;3.41;66.93;98666.53;4191549;28;20268;-83
2023/02/27 08:00:01;;;;;;;5.25;3.92;;;;;;;3.52;66.74;98672.19;4196564;28;20209;-82
2023/02/27 08:02:13;;;;;;;4.75;3.50;;;;;;;3.44;65.92;98674.16;4199327;28;20676;-82
2023/02/27 08:04:17;;;;;;;5.93;3.53;;;;;;;3.32;65.80;98656.50;4184478;28;20197;-83
2023/02/27 08:06:20;;;;;;;4.53;3.95;;;;;;;3.28;66.35;98648.03;4197999;28;20796;-83
2023/02/27 08:08:25;;;;;;;4.80;3.83;;;;;;;3.42;66.35;98653.59;4201311;28;20213;-83
2023/02/27 08:10:28;;;;;;;3.22;2.83;;;;;;;3.40;66.63;98663.13;4199383;28;20238;-83
2023/02/27 08:12:31;;;;;;;7.47;4.55;;;;;;;3.45;65.64;98657.81;4181968;28;20217;-80
2023/02/27 08:14:35;;;;;;;4.82;4.10;;;;;;;3.54;65.13;98663.53;4203713;28;20255;-81
2023/02/27 08:16:38;;;;;;;4.47;3.30;;;;;;;3.46;65.64;98660.34;4197696;28;20271;-80
2023/02/27 08:18:41;;;;;;;4.60;3.70;;;;;;;3.59;65.25;98653.91;4187093;28;20202;-81
2023/02/27 08:20:44;;;;;;;4.70;3.75;;;;;;;3.72;65.21;98662.09;4182240;28;20220;-80
2023/02/27 08:22:47;;;;;;;5.15;3.85;;;;;;;3.93;65.68;98659.66;4211878;28;20212;-80
2023/02/27 08:24:52;;;;;;;5.25;4.13;;;;;;;4.06;64.29;98676.41;4199695;28;20235;-80
2023/02/27 08:26:56;;;;;;;6.68;4.25;;;;;;;3.75;64.13;98666.25;4194342;28;20212;-81
2023/02/27 08:28:59;;;;;;;5.28;2.95;;;;;;;3.41;64.90;98658.78;4180139;28;20911;-82
2023/02/27 08:31:02;;;;;;;3.60;3.30;;;;;;;3.25;64.50;98654.16;4178658;28;20201;-81
2023/02/27 08:33:05;;;;;;;4.82;4.35;;;;;;;3.48;65.48;98665.47;4194595;28;20307;-80
2023/02/27 08:35:09;;;;;;;5.60;3.45;;;;;;;3.78;65.00;98670.47;4198253;28;20768;-81
2023/02/27 08:37:12;;;;;;;5.05;3.50;;;;;;;3.99;63.74;98693.00;4203900;28;20228;-80
2023/02/27 08:39:16;;;;;;;5.03;3.42;;;;;;;3.89;64.39;98664.09;4195890;28;20292;-80
2023/02/27 08:41:21;;;;;;;4.80;3.13;;;;;;;3.94;63.80;98672.50;4197104;28;20583;-80
2023/02/27 08:43:24;;;;;;;5.85;3.50;;;;;;;3.93;63.93;98681.13;4200122;28;21345;-80
2023/02/27 08:45:28;;;;;;;4.72;3.38;;;;;;;3.92;63.77;98669.13;4195716;28;20209;-80
2023/02/27 08:47:31;;;;;;;3.85;3.05;;;;;;;3.84;63.20;98675.44;4200070;28;20205;-80
2023/02/27 08:49:34;;;;;;;5.78;3.40;;;;;;;3.93;62.90;98675.13;4198365;28;20402;-80
2023/02/27 08:51:37;;;;;;;5.88;3.60;;;;;;;3.99;63.55;98680.94;4196988;28;20228;-79
2023/02/27 08:53:41;;;;;;;4.28;3.85;;;;;;;4.11;62.67;98677.09;4189782;28;20523;-80
2023/02/27 08:55:44;;;;;;;4.78;3.40;;;;;;;4.18;62.82;98683.72;4188825;28;20294;-80
2023/02/27 08:57:48;;;;;;;4.80;3.03;;;;;;;4.09;62.76;98678.88;4184824;28;20225;-79
2023/02/27 08:59:52;;;;;;;5.63;4.35;;;;;;;3.89;62.46;98679.56;4182831;28;20247;-79
2023/02/27 09:01:55;;;;;;;5.50;3.83;;;;;;;3.95;63.00;98683.66;4171454;28;20202;-79
2023/02/27 09:03:58;;;;;;;3.83;3.08;;;;;;;3.85;63.56;98687.44;4176126;28;20217;-79
2023/02/27 09:06:02;;;;;;;4.88;3.67;;;;;;;3.85;62.56;98683.13;4201865;28;20220;-79
2023/02/27 09:08:06;;;;;;;3.75;3.10;;;;;;;4.05;62.98;98691.03;4201249;28;20218;-79
2023/02/27 09:10:11;;;;;;;5.15;3.83;;;;;;;4.23;62.47;98688.69;4198252;28;20232;-79
2023/02/27 09:12:14;;;;;;;9.18;3.35;;;;;;;4.08;61.88;98684.94;4194868;28;20198;-79
2023/02/27 09:14:19;;;;;;;4.45;3.33;;;;;;;4.18;61.94;98692.34;4197998;28;20701;-79
2023/02/27 09:16:23;;;;;;;6.28;3.40;;;;;;;4.19;62.27;98686.25;4201760;28;20209;-79
2023/02/27 09:18:26;;;;;;;3.35;3.00;;;;;;;4.07;61.34;98683.25;4196164;28;20282;-79
2023/02/27 09:20:30;;;;;;;4.43;3.30;;;;;;;4.15;62.57;98684.69;4184413;28;20217;-80
2023/02/27 09:22:33;;;;;;;6.35;4.13;;;;;;;4.31;62.21;98693.59;4203577;28;20648;-79
2023/02/27 09:24:36;;;;;;;25.85;14.40;;;;;;;4.20;61.51;98695.69;4199491;28;20288;-80
2023/02/27 09:26:39;;;;;;;5.55;3.60;;;;;;;4.20;62.10;98689.72;4199702;28;20285;-79
2023/02/27 09:28:49;;;;;;;5.50;3.70;;;;;;;4.08;62.45;98685.78;4198362;28;20213;-80
2023/02/27 09:30:53;;;;;;;13.23;7.93;;;;;;;4.17;61.26;98694.97;4205986;28;20208;-79
2023/02/27 09:32:56;;;;;;;4.30;3.53;;;;;;;4.22;60.83;98687.03;4209025;28;20207;-79
2023/02/27 09:34:59;;;;;;;9.52;6.45;;;;;;;4.55;62.15;98687.59;4188976;28;20212;-79
2023/02/27 09:37:03;;;;;;;2.90;2.50;;;;;;;4.68;61.28;98688.84;4207646;28;20204;-80
2023/02/27 09:39:08;;;;;;;4.80;3.05;;;;;;;4.70;61.71;98703.38;4186652;28;20861;-79
2023/02/27 09:41:31;;;;;;;4.78;2.65;;;;;;;4.82;60.80;98696.03;4198945;28;20227;-80
2023/02/27 09:43:37;;;;;;;3.85;2.65;;;;;;;4.99;60.73;98695.41;4197488;28;20750;-81
2023/02/27 09:45:40;;;;;;;3.28;2.33;;;;;;;4.99;58.94;98695.41;4189937;28;20251;-81
2023/02/27 09:47:49;;;;;;;3.85;3.08;;;;;;;4.81;59.46;98684.03;4196035;28;20292;-79
2023/02/27 09:49:58;;;;;;;4.43;2.95;;;;;;;4.77;59.62;98694.53;4189534;28;20217;-83
2023/02/27 09:52:02;;;;;;;5.05;2.88;;;;;;;4.79;59.70;98690.13;4193462;28;20201;-79
2023/02/27 09:54:05;;;;;;;3.78;2.90;;;;;;;4.93;60.45;98695.63;4199499;28;20695;-79
2023/02/27 09:56:13;;;;;;;4.72;2.55;;;;;;;4.56;58.99;98695.28;4201132;28;20189;-79
2023/02/27 09:58:31;;;;;;;3.90;2.33;;;;;;;4.36;59.86;98700.28;4207218;28;20247;-79